sensor_id;sensor_type;location;lat;lon;timestamp;P1;durP1;ratioP1;P2;durP2;ratioP2
15331;SDS011;7766;51.534;6.722;2024-01-30T00:01:16;12.17;;;7.47;;
15331;SDS011;7766;51.534;6.722;2024-01-30T00:03:42;12.27;;;8.17;;
15331;SDS011;7766;51.534;6.722;2024-01-30T00:06:08;11.47;;;7.23;;
15331;SDS011;7766;51.534;6.722;2024-01-30T00:08:34;11.33;;;7.27;;
15331;SDS011;7766;51.534;6.722;2024-01-30T00:11:00;9.13;;;6.80;;
15331;SDS011;7766;51.534;6.722;2024-01-30T00:13:26;11.80;;;7.00;;
15331;SDS011;7766;51.534;6.722;2024-01-30T00:15:52;13.27;;;6.87;;
15331;SDS011;7766;51.534;6.722;2024-01-30T00:18:18;11.63;;;6.47;;
15331;SDS011;7766;51.534;6.722;2024-01-30T00:20:44;15.77;;;7.80;;
15331;SDS011;7766;51.534;6.722;2024-01-30T00:23:10;13.93;;;7.40;;
15331;SDS011;7766;51.534;6.722;2024-01-30T00:25:36;13.63;;;7.20;;
15331;SDS011;7766;51.534;6.722;2024-01-30T00:28:02;9.47;;;6.93;;
15331;SDS011;7766;51.534;6.722;2024-01-30T00:30:28;11.77;;;7.00;;
15331;SDS011;7766;51.534;6.722;2024-01-30T00:32:54;10.63;;;6.80;;
15331;SDS011;7766;51.534;6.722;2024-01-30T00:35:19;11.13;;;7.10;;
15331;SDS011;7766;51.534;6.722;2024-01-30T00:37:47;10.00;;;7.07;;
15331;SDS011;7766;51.534;6.722;2024-01-30T00:40:13;11.00;;;7.00;;
15331;SDS011;7766;51.534;6.722;2024-01-30T00:42:41;14.03;;;7.07;;
15331;SDS011;7766;51.534;6.722;2024-01-30T00:45:11;10.27;;;6.80;;
15331;SDS011;7766;51.534;6.722;2024-01-30T00:47:37;11.67;;;7.20;;
15331;SDS011;7766;51.534;6.722;2024-01-30T00:50:03;16.37;;;7.00;;
15331;SDS011;7766;51.534;6.722;2024-01-30T00:52:29;11.03;;;7.33;;
15331;SDS011;7766;51.534;6.722;2024-01-30T00:54:55;11.40;;;6.97;;
15331;SDS011;7766;51.534;6.722;2024-01-30T00:57:21;14.60;;;7.77;;
15331;SDS011;7766;51.534;6.722;2024-01-30T00:59:47;12.33;;;7.33;;
15331;SDS011;7766;51.534;6.722;2024-01-30T01:02:13;9.33;;;7.17;;
15331;SDS011;7766;51.534;6.722;2024-01-30T01:04:40;9.57;;;6.63;;
15331;SDS011;7766;51.534;6.722;2024-01-30T01:07:06;10.23;;;7.03;;
15331;SDS011;7766;51.534;6.722;2024-01-30T01:09:31;12.33;;;7.00;;
15331;SDS011;7766;51.534;6.722;2024-01-30T01:11:57;15.80;;;6.63;;
15331;SDS011;7766;51.534;6.722;2024-01-30T01:14:23;9.80;;;7.57;;
15331;SDS011;7766;51.534;6.722;2024-01-30T01:16:48;14.60;;;7.23;;
15331;SDS011;7766;51.534;6.722;2024-01-30T01:19:14;14.20;;;7.23;;
15331;SDS011;7766;51.534;6.722;2024-01-30T01:21:40;11.97;;;7.00;;
15331;SDS011;7766;51.534;6.722;2024-01-30T01:24:06;10.20;;;6.80;;
15331;SDS011;7766;51.534;6.722;2024-01-30T01:26:32;9.50;;;6.67;;
15331;SDS011;7766;51.534;6.722;2024-01-30T01:28:58;8.73;;;6.80;;
15331;SDS011;7766;51.534;6.722;2024-01-30T01:31:24;12.50;;;7.37;;
15331;SDS011;7766;51.534;6.722;2024-01-30T01:33:54;14.77;;;7.77;;
15331;SDS011;7766;51.534;6.722;2024-01-30T01:36:20;10.20;;;6.37;;
15331;SDS011;7766;51.534;6.722;2024-01-30T01:38:46;9.50;;;6.87;;
15331;SDS011;7766;51.534;6.722;2024-01-30T01:41:12;9.30;;;6.83;;
15331;SDS011;7766;51.534;6.722;2024-01-30T01:43:38;11.27;;;6.97;;
15331;SDS011;7766;51.534;6.722;2024-01-30T01:46:04;9.27;;;6.07;;
15331;SDS011;7766;51.534;6.722;2024-01-30T01:48:30;10.27;;;6.97;;
15331;SDS011;7766;51.534;6.722;2024-01-30T01:50:57;11.70;;;7.50;;
15331;SDS011;7766;51.534;6.722;2024-01-30T01:53:23;10.87;;;7.23;;
15331;SDS011;7766;51.534;6.722;2024-01-30T01:55:49;8.60;;;6.80;;
15331;SDS011;7766;51.534;6.722;2024-01-30T01:58:15;11.00;;;7.40;;
15331;SDS011;7766;51.534;6.722;2024-01-30T02:00:41;10.93;;;7.07;;
15331;SDS011;7766;51.534;6.722;2024-01-30T02:03:08;13.63;;;7.83;;
15331;SDS011;7766;51.534;6.722;2024-01-30T02:05:37;11.20;;;6.87;;
15331;SDS011;7766;51.534;6.722;2024-01-30T02:08:03;10.93;;;7.10;;
15331;SDS011;7766;51.534;6.722;2024-01-30T02:10:29;9.43;;;7.40;;
15331;SDS011;7766;51.534;6.722;2024-01-30T02:12:55;13.90;;;7.43;;
15331;SDS011;7766;51.534;6.722;2024-01-30T02:15:20;14.27;;;7.17;;
15331;SDS011;7766;51.534;6.722;2024-01-30T02:17:46;10.77;;;7.17;;
15331;SDS011;7766;51.534;6.722;2024-01-30T02:20:12;9.93;;;7.17;;
15331;SDS011;7766;51.534;6.722;2024-01-30T02:22:38;10.87;;;8.30;;
15331;SDS011;7766;51.534;6.722;2024-01-30T02:25:06;10.73;;;7.63;;
15331;SDS011;7766;51.534;6.722;2024-01-30T02:27:31;12.60;;;7.60;;
15331;SDS011;7766;51.534;6.722;2024-01-30T02:29:57;9.80;;;7.67;;
15331;SDS011;7766;51.534;6.722;2024-01-30T02:32:23;17.30;;;8.10;;
15331;SDS011;7766;51.534;6.722;2024-01-30T02:34:49;17.30;;;7.47;;
15331;SDS011;7766;51.534;6.722;2024-01-30T02:37:16;10.30;;;7.00;;
15331;SDS011;7766;51.534;6.722;2024-01-30T02:39:42;10.30;;;7.00;;
15331;SDS011;7766;51.534;6.722;2024-01-30T02:42:08;10.37;;;7.07;;
15331;SDS011;7766;51.534;6.722;2024-01-30T02:44:34;11.10;;;7.30;;
15331;SDS011;7766;51.534;6.722;2024-01-30T02:46:59;11.10;;;6.87;;
15331;SDS011;7766;51.534;6.722;2024-01-30T02:49:25;12.13;;;7.47;;
15331;SDS011;7766;51.534;6.722;2024-01-30T02:51:51;8.87;;;6.40;;
15331;SDS011;7766;51.534;6.722;2024-01-30T02:54:17;10.90;;;7.03;;
15331;SDS011;7766;51.534;6.722;2024-01-30T02:56:43;12.33;;;7.13;;
15331;SDS011;7766;51.534;6.722;2024-01-30T02:59:09;12.93;;;7.30;;
15331;SDS011;7766;51.534;6.722;2024-01-30T03:01:42;10.60;;;6.23;;
15331;SDS011;7766;51.534;6.722;2024-01-30T03:04:08;10.03;;;6.30;;
15331;SDS011;7766;51.534;6.722;2024-01-30T03:06:34;10.87;;;6.97;;
15331;SDS011;7766;51.534;6.722;2024-01-30T03:09:00;10.33;;;7.07;;
15331;SDS011;7766;51.534;6.722;2024-01-30T03:11:26;8.90;;;6.70;;
15331;SDS011;7766;51.534;6.722;2024-01-30T03:13:52;10.73;;;6.80;;
15331;SDS011;7766;51.534;6.722;2024-01-30T03:16:18;13.07;;;6.77;;
15331;SDS011;7766;51.534;6.722;2024-01-30T03:18:44;8.83;;;6.60;;
15331;SDS011;7766;51.534;6.722;2024-01-30T03:21:10;10.67;;;6.10;;
15331;SDS011;7766;51.534;6.722;2024-01-30T03:23:35;10.87;;;6.90;;
15331;SDS011;7766;51.534;6.722;2024-01-30T03:26:01;10.87;;;6.60;;
15331;SDS011;7766;51.534;6.722;2024-01-30T03:28:29;8.50;;;6.50;;
15331;SDS011;7766;51.534;6.722;2024-01-30T03:30:55;12.33;;;6.73;;
15331;SDS011;7766;51.534;6.722;2024-01-30T03:33:21;9.90;;;6.40;;
15331;SDS011;7766;51.534;6.722;2024-01-30T03:35:47;10.97;;;7.10;;
15331;SDS011;7766;51.534;6.722;2024-01-30T03:38:13;9.97;;;7.20;;
15331;SDS011;7766;51.534;6.722;2024-01-30T03:40:38;11.23;;;6.53;;
15331;SDS011;7766;51.534;6.722;2024-01-30T03:43:04;11.30;;;6.97;;
15331;SDS011;7766;51.534;6.722;2024-01-30T03:45:30;9.83;;;6.87;;
15331;SDS011;7766;51.534;6.722;2024-01-30T03:47:56;11.23;;;6.73;;
15331;SDS011;7766;51.534;6.722;2024-01-30T03:50:22;10.83;;;6.80;;
15331;SDS011;7766;51.534;6.722;2024-01-30T03:52:48;8.67;;;6.13;;
15331;SDS011;7766;51.534;6.722;2024-01-30T03:55:14;9.83;;;6.43;;
15331;SDS011;7766;51.534;6.722;2024-01-30T03:57:40;8.47;;;6.47;;
15331;SDS011;7766;51.534;6.722;2024-01-30T04:00:06;9.83;;;7.10;;
15331;SDS011;7766;51.534;6.722;2024-01-30T04:02:33;9.57;;;6.90;;
15331;SDS011;7766;51.534;6.722;2024-01-30T04:04:59;12.33;;;6.77;;
15331;SDS011;7766;51.534;6.722;2024-01-30T04:07:24;8.30;;;6.23;;
15331;SDS011;7766;51.534;6.722;2024-01-30T04:09:50;11.77;;;6.30;;
15331;SDS011;7766;51.534;6.722;2024-01-30T04:12:16;9.60;;;6.63;;
15331;SDS011;7766;51.534;6.722;2024-01-30T04:14:42;12.67;;;6.70;;
15331;SDS011;7766;51.534;6.722;2024-01-30T04:17:08;13.13;;;6.83;;
15331;SDS011;7766;51.534;6.722;2024-01-30T04:19:36;9.53;;;6.50;;
15331;SDS011;7766;51.534;6.722;2024-01-30T04:22:03;10.43;;;6.77;;
15331;SDS011;7766;51.534;6.722;2024-01-30T04:24:29;7.30;;;6.10;;
15331;SDS011;7766;51.534;6.722;2024-01-30T04:26:55;11.93;;;7.20;;
15331;SDS011;7766;51.534;6.722;2024-01-30T04:29:20;10.10;;;6.63;;
15331;SDS011;7766;51.534;6.722;2024-01-30T04:31:47;10.77;;;6.37;;
15331;SDS011;7766;51.534;6.722;2024-01-30T04:34:13;9.13;;;6.30;;
15331;SDS011;7766;51.534;6.722;2024-01-30T04:36:39;8.20;;;6.30;;
15331;SDS011;7766;51.534;6.722;2024-01-30T04:39:04;9.43;;;6.80;;
15331;SDS011;7766;51.534;6.722;2024-01-30T04:41:30;9.47;;;6.43;;
15331;SDS011;7766;51.534;6.722;2024-01-30T04:43:57;10.77;;;6.73;;
15331;SDS011;7766;51.534;6.722;2024-01-30T04:46:23;8.97;;;6.43;;
15331;SDS011;7766;51.534;6.722;2024-01-30T04:48:49;11.17;;;6.13;;
15331;SDS011;7766;51.534;6.722;2024-01-30T04:51:14;9.33;;;5.70;;
15331;SDS011;7766;51.534;6.722;2024-01-30T04:53:40;10.13;;;5.97;;
15331;SDS011;7766;51.534;6.722;2024-01-30T04:56:06;8.80;;;6.07;;
15331;SDS011;7766;51.534;6.722;2024-01-30T04:58:32;9.53;;;6.50;;
15331;SDS011;7766;51.534;6.722;2024-01-30T05:00:58;8.33;;;6.03;;
15331;SDS011;7766;51.534;6.722;2024-01-30T05:03:24;11.07;;;6.43;;
15331;SDS011;7766;51.534;6.722;2024-01-30T05:05:50;9.63;;;6.23;;
15331;SDS011;7766;51.534;6.722;2024-01-30T05:08:16;10.43;;;6.07;;
15331;SDS011;7766;51.534;6.722;2024-01-30T05:10:42;9.83;;;6.33;;
15331;SDS011;7766;51.534;6.722;2024-01-30T05:13:08;12.17;;;6.37;;
15331;SDS011;7766;51.534;6.722;2024-01-30T05:15:34;12.93;;;6.47;;
15331;SDS011;7766;51.534;6.722;2024-01-30T05:18:00;9.97;;;6.13;;
15331;SDS011;7766;51.534;6.722;2024-01-30T05:20:26;10.60;;;6.57;;
15331;SDS011;7766;51.534;6.722;2024-01-30T05:22:58;9.87;;;6.07;;
15331;SDS011;7766;51.534;6.722;2024-01-30T05:25:24;12.03;;;6.77;;
15331;SDS011;7766;51.534;6.722;2024-01-30T05:27:50;11.03;;;6.40;;
15331;SDS011;7766;51.534;6.722;2024-01-30T05:30:15;13.07;;;7.33;;
15331;SDS011;7766;51.534;6.722;2024-01-30T05:32:41;10.23;;;6.63;;
15331;SDS011;7766;51.534;6.722;2024-01-30T05:35:06;9.77;;;7.20;;
15331;SDS011;7766;51.534;6.722;2024-01-30T05:37:35;11.10;;;7.30;;
15331;SDS011;7766;51.534;6.722;2024-01-30T05:40:01;17.90;;;7.37;;
15331;SDS011;7766;51.534;6.722;2024-01-30T05:42:26;14.00;;;7.23;;
15331;SDS011;7766;51.534;6.722;2024-01-30T05:44:52;12.90;;;7.10;;
15331;SDS011;7766;51.534;6.722;2024-01-30T05:47:18;10.73;;;7.57;;
15331;SDS011;7766;51.534;6.722;2024-01-30T05:49:43;9.93;;;6.40;;
15331;SDS011;7766;51.534;6.722;2024-01-30T05:52:09;14.57;;;7.20;;
15331;SDS011;7766;51.534;6.722;2024-01-30T05:54:36;13.90;;;6.50;;
15331;SDS011;7766;51.534;6.722;2024-01-30T05:57:02;10.60;;;7.13;;
15331;SDS011;7766;51.534;6.722;2024-01-30T05:59:27;10.47;;;6.80;;
15331;SDS011;7766;51.534;6.722;2024-01-30T06:01:53;14.40;;;7.70;;
15331;SDS011;7766;51.534;6.722;2024-01-30T06:04:19;9.50;;;7.07;;
15331;SDS011;7766;51.534;6.722;2024-01-30T06:06:45;13.23;;;7.77;;
15331;SDS011;7766;51.534;6.722;2024-01-30T06:09:10;16.10;;;7.77;;
15331;SDS011;7766;51.534;6.722;2024-01-30T06:11:37;10.57;;;7.53;;
15331;SDS011;7766;51.534;6.722;2024-01-30T06:14:03;10.03;;;6.70;;
15331;SDS011;7766;51.534;6.722;2024-01-30T06:16:29;13.83;;;7.57;;
15331;SDS011;7766;51.534;6.722;2024-01-30T06:18:55;9.83;;;6.60;;
15331;SDS011;7766;51.534;6.722;2024-01-30T06:21:21;9.57;;;6.83;;
15331;SDS011;7766;51.534;6.722;2024-01-30T06:23:46;9.03;;;6.43;;
15331;SDS011;7766;51.534;6.722;2024-01-30T06:26:12;10.33;;;6.97;;
15331;SDS011;7766;51.534;6.722;2024-01-30T06:28:38;12.80;;;7.10;;
15331;SDS011;7766;51.534;6.722;2024-01-30T06:31:04;10.57;;;6.77;;
15331;SDS011;7766;51.534;6.722;2024-01-30T06:33:29;16.80;;;8.50;;
15331;SDS011;7766;51.534;6.722;2024-01-30T06:35:55;9.67;;;6.73;;
15331;SDS011;7766;51.534;6.722;2024-01-30T06:38:20;13.07;;;7.37;;
15331;SDS011;7766;51.534;6.722;2024-01-30T06:40:46;13.10;;;6.83;;
15331;SDS011;7766;51.534;6.722;2024-01-30T06:43:12;12.40;;;7.23;;
15331;SDS011;7766;51.534;6.722;2024-01-30T06:45:37;14.93;;;6.73;;
15331;SDS011;7766;51.534;6.722;2024-01-30T06:48:03;10.27;;;6.00;;
15331;SDS011;7766;51.534;6.722;2024-01-30T06:50:29;17.43;;;7.63;;
15331;SDS011;7766;51.534;6.722;2024-01-30T06:52:54;10.50;;;7.00;;
15331;SDS011;7766;51.534;6.722;2024-01-30T06:55:20;13.23;;;7.03;;
15331;SDS011;7766;51.534;6.722;2024-01-30T06:57:46;12.67;;;7.60;;
15331;SDS011;7766;51.534;6.722;2024-01-30T07:00:12;13.00;;;7.63;;
15331;SDS011;7766;51.534;6.722;2024-01-30T07:02:39;10.93;;;6.60;;
15331;SDS011;7766;51.534;6.722;2024-01-30T07:05:05;13.97;;;6.70;;
15331;SDS011;7766;51.534;6.722;2024-01-30T07:07:30;11.20;;;7.30;;
15331;SDS011;7766;51.534;6.722;2024-01-30T07:09:56;9.73;;;6.93;;
15331;SDS011;7766;51.534;6.722;2024-01-30T07:12:22;9.93;;;6.67;;
15331;SDS011;7766;51.534;6.722;2024-01-30T07:14:49;11.07;;;7.57;;
15331;SDS011;7766;51.534;6.722;2024-01-30T07:17:15;9.63;;;6.93;;
15331;SDS011;7766;51.534;6.722;2024-01-30T07:19:41;10.53;;;6.73;;
15331;SDS011;7766;51.534;6.722;2024-01-30T07:22:08;15.60;;;7.47;;
15331;SDS011;7766;51.534;6.722;2024-01-30T07:24:34;12.77;;;7.13;;
15331;SDS011;7766;51.534;6.722;2024-01-30T07:27:00;11.77;;;7.03;;
15331;SDS011;7766;51.534;6.722;2024-01-30T07:29:25;12.27;;;7.57;;
15331;SDS011;7766;51.534;6.722;2024-01-30T07:31:51;10.03;;;6.53;;
15331;SDS011;7766;51.534;6.722;2024-01-30T07:34:17;13.53;;;7.30;;
15331;SDS011;7766;51.534;6.722;2024-01-30T07:36:43;12.83;;;8.03;;
15331;SDS011;7766;51.534;6.722;2024-01-30T07:39:09;20.70;;;8.30;;
15331;SDS011;7766;51.534;6.722;2024-01-30T07:41:35;10.63;;;6.40;;
15331;SDS011;7766;51.534;6.722;2024-01-30T07:44:00;9.53;;;6.77;;
15331;SDS011;7766;51.534;6.722;2024-01-30T07:46:26;10.00;;;6.13;;
15331;SDS011;7766;51.534;6.722;2024-01-30T07:48:52;10.97;;;6.73;;
15331;SDS011;7766;51.534;6.722;2024-01-30T07:51:18;10.67;;;6.63;;
15331;SDS011;7766;51.534;6.722;2024-01-30T07:53:44;9.90;;;7.10;;
15331;SDS011;7766;51.534;6.722;2024-01-30T07:56:11;9.63;;;7.00;;
15331;SDS011;7766;51.534;6.722;2024-01-30T07:58:36;11.67;;;6.63;;
15331;SDS011;7766;51.534;6.722;2024-01-30T08:01:02;10.93;;;6.47;;
15331;SDS011;7766;51.534;6.722;2024-01-30T08:03:28;9.87;;;7.00;;
15331;SDS011;7766;51.534;6.722;2024-01-30T08:05:53;9.07;;;6.33;;
15331;SDS011;7766;51.534;6.722;2024-01-30T08:08:20;8.80;;;5.73;;
15331;SDS011;7766;51.534;6.722;2024-01-30T08:10:46;12.57;;;7.80;;
15331;SDS011;7766;51.534;6.722;2024-01-30T08:13:13;10.47;;;7.17;;
15331;SDS011;7766;51.534;6.722;2024-01-30T08:15:39;12.20;;;7.23;;
15331;SDS011;7766;51.534;6.722;2024-01-30T08:18:05;14.30;;;7.40;;
15331;SDS011;7766;51.534;6.722;2024-01-30T08:20:32;13.13;;;6.90;;
15331;SDS011;7766;51.534;6.722;2024-01-30T08:22:57;12.37;;;7.37;;
15331;SDS011;7766;51.534;6.722;2024-01-30T08:25:25;9.00;;;6.57;;
15331;SDS011;7766;51.534;6.722;2024-01-30T08:27:51;12.40;;;7.57;;
15331;SDS011;7766;51.534;6.722;2024-01-30T08:30:17;11.57;;;6.97;;
15331;SDS011;7766;51.534;6.722;2024-01-30T08:32:43;11.33;;;7.53;;
15331;SDS011;7766;51.534;6.722;2024-01-30T08:35:08;13.33;;;7.43;;
15331;SDS011;7766;51.534;6.722;2024-01-30T08:37:34;10.83;;;6.87;;
15331;SDS011;7766;51.534;6.722;2024-01-30T08:39:59;12.00;;;7.10;;
15331;SDS011;7766;51.534;6.722;2024-01-30T08:42:26;14.00;;;7.40;;
15331;SDS011;7766;51.534;6.722;2024-01-30T08:44:52;12.27;;;6.97;;
15331;SDS011;7766;51.534;6.722;2024-01-30T08:47:19;13.37;;;7.53;;
15331;SDS011;7766;51.534;6.722;2024-01-30T08:49:45;10.33;;;7.10;;
15331;SDS011;7766;51.534;6.722;2024-01-30T08:52:11;18.43;;;7.40;;
15331;SDS011;7766;51.534;6.722;2024-01-30T08:54:36;12.00;;;7.37;;
15331;SDS011;7766;51.534;6.722;2024-01-30T08:57:02;10.83;;;7.20;;
15331;SDS011;7766;51.534;6.722;2024-01-30T08:59:29;13.10;;;7.77;;
15331;SDS011;7766;51.534;6.722;2024-01-30T09:01:54;12.57;;;7.83;;
15331;SDS011;7766;51.534;6.722;2024-01-30T09:04:22;15.13;;;8.07;;
15331;SDS011;7766;51.534;6.722;2024-01-30T09:06:48;12.67;;;7.27;;
15331;SDS011;7766;51.534;6.722;2024-01-30T09:09:14;12.37;;;7.27;;
15331;SDS011;7766;51.534;6.722;2024-01-30T09:11:40;13.40;;;8.03;;
15331;SDS011;7766;51.534;6.722;2024-01-30T09:14:06;14.40;;;7.70;;
15331;SDS011;7766;51.534;6.722;2024-01-30T09:16:32;15.43;;;8.17;;
15331;SDS011;7766;51.534;6.722;2024-01-30T09:18:58;12.77;;;8.27;;
15331;SDS011;7766;51.534;6.722;2024-01-30T09:21:23;11.97;;;7.60;;
15331;SDS011;7766;51.534;6.722;2024-01-30T09:23:49;14.80;;;7.87;;
15331;SDS011;7766;51.534;6.722;2024-01-30T09:26:15;9.83;;;7.00;;
15331;SDS011;7766;51.534;6.722;2024-01-30T09:28:41;16.57;;;10.27;;
15331;SDS011;7766;51.534;6.722;2024-01-30T09:31:11;10.37;;;7.50;;
15331;SDS011;7766;51.534;6.722;2024-01-30T09:33:37;12.10;;;7.57;;
15331;SDS011;7766;51.534;6.722;2024-01-30T09:36:03;11.77;;;7.13;;
15331;SDS011;7766;51.534;6.722;2024-01-30T09:38:30;13.13;;;7.50;;
15331;SDS011;7766;51.534;6.722;2024-01-30T09:40:55;13.33;;;7.60;;
15331;SDS011;7766;51.534;6.722;2024-01-30T09:43:23;17.20;;;7.97;;
15331;SDS011;7766;51.534;6.722;2024-01-30T09:45:52;15.10;;;8.60;;
15331;SDS011;7766;51.534;6.722;2024-01-30T09:48:19;14.57;;;8.93;;
15331;SDS011;7766;51.534;6.722;2024-01-30T09:50:45;14.50;;;8.07;;
15331;SDS011;7766;51.534;6.722;2024-01-30T09:53:11;14.63;;;8.03;;
15331;SDS011;7766;51.534;6.722;2024-01-30T09:55:38;14.10;;;7.93;;
15331;SDS011;7766;51.534;6.722;2024-01-30T09:58:08;10.50;;;7.87;;
15331;SDS011;7766;51.534;6.722;2024-01-30T10:00:34;14.07;;;7.07;;
15331;SDS011;7766;51.534;6.722;2024-01-30T10:03:00;14.37;;;7.60;;
15331;SDS011;7766;51.534;6.722;2024-01-30T10:05:28;15.27;;;8.43;;
15331;SDS011;7766;51.534;6.722;2024-01-30T10:07:59;15.73;;;8.00;;
15331;SDS011;7766;51.534;6.722;2024-01-30T10:10:24;12.70;;;7.47;;
15331;SDS011;7766;51.534;6.722;2024-01-30T10:12:51;12.37;;;7.20;;
15331;SDS011;7766;51.534;6.722;2024-01-30T10:15:19;11.83;;;6.73;;
15331;SDS011;7766;51.534;6.722;2024-01-30T10:17:45;11.63;;;7.47;;
15331;SDS011;7766;51.534;6.722;2024-01-30T10:20:11;14.93;;;8.03;;
15331;SDS011;7766;51.534;6.722;2024-01-30T10:22:37;8.97;;;6.37;;
15331;SDS011;7766;51.534;6.722;2024-01-30T10:25:04;9.30;;;6.77;;
15331;SDS011;7766;51.534;6.722;2024-01-30T10:27:30;10.97;;;7.37;;
15331;SDS011;7766;51.534;6.722;2024-01-30T10:29:56;11.07;;;7.53;;
15331;SDS011;7766;51.534;6.722;2024-01-30T10:32:23;11.67;;;7.00;;
15331;SDS011;7766;51.534;6.722;2024-01-30T10:34:48;11.47;;;7.43;;
15331;SDS011;7766;51.534;6.722;2024-01-30T10:37:15;10.17;;;7.33;;
15331;SDS011;7766;51.534;6.722;2024-01-30T10:39:42;12.60;;;7.00;;
15331;SDS011;7766;51.534;6.722;2024-01-30T10:42:12;10.83;;;7.63;;
15331;SDS011;7766;51.534;6.722;2024-01-30T10:47:37;15.53;;;8.40;;
15331;SDS011;7766;51.534;6.722;2024-01-30T10:50:07;13.70;;;8.23;;
15331;SDS011;7766;51.534;6.722;2024-01-30T10:52:33;10.47;;;7.73;;
15331;SDS011;7766;51.534;6.722;2024-01-30T10:55:00;11.53;;;8.07;;
15331;SDS011;7766;51.534;6.722;2024-01-30T10:57:26;10.60;;;6.97;;
15331;SDS011;7766;51.534;6.722;2024-01-30T10:59:59;12.40;;;8.07;;
15331;SDS011;7766;51.534;6.722;2024-01-30T11:02:26;10.53;;;8.37;;
15331;SDS011;7766;51.534;6.722;2024-01-30T11:04:59;11.53;;;8.67;;
15331;SDS011;7766;51.534;6.722;2024-01-30T11:07:26;12.43;;;8.77;;
15331;SDS011;7766;51.534;6.722;2024-01-30T11:09:53;14.67;;;8.43;;
15331;SDS011;7766;51.534;6.722;2024-01-30T11:12:23;13.77;;;8.60;;
15331;SDS011;7766;51.534;6.722;2024-01-30T11:14:50;12.83;;;8.07;;
15331;SDS011;7766;51.534;6.722;2024-01-30T11:17:16;17.10;;;7.77;;
15331;SDS011;7766;51.534;6.722;2024-01-30T11:19:42;9.43;;;7.20;;
15331;SDS011;7766;51.534;6.722;2024-01-30T11:22:08;12.20;;;7.43;;
15331;SDS011;7766;51.534;6.722;2024-01-30T11:24:39;12.27;;;6.77;;
15331;SDS011;7766;51.534;6.722;2024-01-30T11:27:07;11.10;;;6.60;;
15331;SDS011;7766;51.534;6.722;2024-01-30T11:29:35;10.53;;;6.57;;
15331;SDS011;7766;51.534;6.722;2024-01-30T11:32:01;10.27;;;7.50;;
15331;SDS011;7766;51.534;6.722;2024-01-30T11:34:27;9.00;;;6.70;;
15331;SDS011;7766;51.534;6.722;2024-01-30T11:36:57;9.80;;;6.40;;
15331;SDS011;7766;51.534;6.722;2024-01-30T11:39:24;11.00;;;7.07;;
15331;SDS011;7766;51.534;6.722;2024-01-30T11:41:51;10.60;;;7.20;;
15331;SDS011;7766;51.534;6.722;2024-01-30T11:44:18;8.87;;;6.53;;
15331;SDS011;7766;51.534;6.722;2024-01-30T11:46:51;11.13;;;7.37;;
15331;SDS011;7766;51.534;6.722;2024-01-30T11:49:17;10.63;;;6.30;;
15331;SDS011;7766;51.534;6.722;2024-01-30T11:51:45;9.30;;;6.70;;
15331;SDS011;7766;51.534;6.722;2024-01-30T11:54:11;13.13;;;6.73;;
15331;SDS011;7766;51.534;6.722;2024-01-30T11:56:37;9.70;;;6.87;;
15331;SDS011;7766;51.534;6.722;2024-01-30T11:59:03;11.30;;;6.77;;
15331;SDS011;7766;51.534;6.722;2024-01-30T12:01:30;11.97;;;7.30;;
15331;SDS011;7766;51.534;6.722;2024-01-30T12:03:57;11.73;;;6.53;;
15331;SDS011;7766;51.534;6.722;2024-01-30T12:06:23;12.17;;;7.70;;
15331;SDS011;7766;51.534;6.722;2024-01-30T12:08:57;10.77;;;6.37;;
15331;SDS011;7766;51.534;6.722;2024-01-30T12:11:26;9.20;;;5.90;;
15331;SDS011;7766;51.534;6.722;2024-01-30T12:13:55;12.97;;;6.40;;
15331;SDS011;7766;51.534;6.722;2024-01-30T12:16:21;12.00;;;6.77;;
15331;SDS011;7766;51.534;6.722;2024-01-30T12:18:47;12.00;;;6.63;;
15331;SDS011;7766;51.534;6.722;2024-01-30T12:21:16;10.17;;;6.50;;
15331;SDS011;7766;51.534;6.722;2024-01-30T12:23:42;9.23;;;6.10;;
15331;SDS011;7766;51.534;6.722;2024-01-30T12:26:08;8.73;;;6.40;;
15331;SDS011;7766;51.534;6.722;2024-01-30T12:28:35;13.00;;;7.27;;
15331;SDS011;7766;51.534;6.722;2024-01-30T12:31:04;12.27;;;7.23;;
15331;SDS011;7766;51.534;6.722;2024-01-30T12:33:30;10.57;;;6.87;;
15331;SDS011;7766;51.534;6.722;2024-01-30T12:35:56;11.77;;;7.57;;
15331;SDS011;7766;51.534;6.722;2024-01-30T12:38:25;8.97;;;6.33;;
15331;SDS011;7766;51.534;6.722;2024-01-30T12:40:54;9.83;;;6.43;;
15331;SDS011;7766;51.534;6.722;2024-01-30T12:43:21;11.73;;;7.13;;
15331;SDS011;7766;51.534;6.722;2024-01-30T12:45:47;10.60;;;6.53;;
15331;SDS011;7766;51.534;6.722;2024-01-30T12:48:13;12.43;;;7.20;;
15331;SDS011;7766;51.534;6.722;2024-01-30T12:50:40;12.87;;;6.60;;
15331;SDS011;7766;51.534;6.722;2024-01-30T12:53:06;12.93;;;6.57;;
15331;SDS011;7766;51.534;6.722;2024-01-30T12:55:34;11.00;;;6.90;;
15331;SDS011;7766;51.534;6.722;2024-01-30T12:57:59;11.67;;;7.03;;
15331;SDS011;7766;51.534;6.722;2024-01-30T13:00:25;12.27;;;6.83;;
15331;SDS011;7766;51.534;6.722;2024-01-30T13:02:51;11.60;;;7.23;;
15331;SDS011;7766;51.534;6.722;2024-01-30T13:05:17;12.67;;;8.13;;
15331;SDS011;7766;51.534;6.722;2024-01-30T13:07:42;28.07;;;13.43;;
15331;SDS011;7766;51.534;6.722;2024-01-30T13:10:08;14.30;;;8.33;;
15331;SDS011;7766;51.534;6.722;2024-01-30T13:12:34;14.73;;;7.57;;
15331;SDS011;7766;51.534;6.722;2024-01-30T13:15:00;10.93;;;6.73;;
15331;SDS011;7766;51.534;6.722;2024-01-30T13:17:26;12.17;;;7.27;;
15331;SDS011;7766;51.534;6.722;2024-01-30T13:19:52;12.43;;;7.07;;
15331;SDS011;7766;51.534;6.722;2024-01-30T13:22:19;14.07;;;7.50;;
15331;SDS011;7766;51.534;6.722;2024-01-30T13:24:46;13.63;;;7.97;;
15331;SDS011;7766;51.534;6.722;2024-01-30T13:27:12;11.70;;;6.90;;
15331;SDS011;7766;51.534;6.722;2024-01-30T13:29:38;10.47;;;6.87;;
15331;SDS011;7766;51.534;6.722;2024-01-30T13:32:04;12.00;;;6.60;;
15331;SDS011;7766;51.534;6.722;2024-01-30T13:34:30;9.50;;;6.53;;
15331;SDS011;7766;51.534;6.722;2024-01-30T13:36:56;11.77;;;6.20;;
15331;SDS011;7766;51.534;6.722;2024-01-30T13:39:22;10.00;;;6.00;;
15331;SDS011;7766;51.534;6.722;2024-01-30T13:41:48;9.43;;;5.70;;
15331;SDS011;7766;51.534;6.722;2024-01-30T13:44:15;7.27;;;5.53;;
15331;SDS011;7766;51.534;6.722;2024-01-30T13:46:43;10.90;;;5.87;;
15331;SDS011;7766;51.534;6.722;2024-01-30T13:49:08;9.43;;;5.40;;
15331;SDS011;7766;51.534;6.722;2024-01-30T13:51:34;13.10;;;6.50;;
15331;SDS011;7766;51.534;6.722;2024-01-30T13:53:59;11.17;;;5.77;;
15331;SDS011;7766;51.534;6.722;2024-01-30T13:56:25;11.60;;;6.13;;
15331;SDS011;7766;51.534;6.722;2024-01-30T13:58:52;8.63;;;5.73;;
15331;SDS011;7766;51.534;6.722;2024-01-30T14:01:18;9.57;;;5.23;;
15331;SDS011;7766;51.534;6.722;2024-01-30T14:03:43;11.67;;;5.50;;
15331;SDS011;7766;51.534;6.722;2024-01-30T14:06:09;8.50;;;5.63;;
15331;SDS011;7766;51.534;6.722;2024-01-30T14:08:35;9.07;;;5.63;;
15331;SDS011;7766;51.534;6.722;2024-01-30T14:11:01;8.80;;;5.70;;
15331;SDS011;7766;51.534;6.722;2024-01-30T14:13:27;10.90;;;5.40;;
15331;SDS011;7766;51.534;6.722;2024-01-30T14:15:53;9.07;;;5.73;;
15331;SDS011;7766;51.534;6.722;2024-01-30T14:18:19;11.57;;;6.37;;
15331;SDS011;7766;51.534;6.722;2024-01-30T14:20:45;12.83;;;6.20;;
15331;SDS011;7766;51.534;6.722;2024-01-30T14:23:11;9.03;;;6.00;;
15331;SDS011;7766;51.534;6.722;2024-01-30T14:25:37;9.07;;;5.40;;
15331;SDS011;7766;51.534;6.722;2024-01-30T14:28:03;10.80;;;4.80;;
15331;SDS011;7766;51.534;6.722;2024-01-30T14:30:29;9.17;;;4.77;;
15331;SDS011;7766;51.534;6.722;2024-01-30T14:32:55;6.80;;;3.60;;
15331;SDS011;7766;51.534;6.722;2024-01-30T14:35:21;5.80;;;3.60;;
15331;SDS011;7766;51.534;6.722;2024-01-30T14:37:46;8.10;;;3.90;;
15331;SDS011;7766;51.534;6.722;2024-01-30T14:40:12;7.20;;;4.07;;
15331;SDS011;7766;51.534;6.722;2024-01-30T14:42:38;8.43;;;3.70;;
15331;SDS011;7766;51.534;6.722;2024-01-30T14:45:05;5.93;;;3.63;;
15331;SDS011;7766;51.534;6.722;2024-01-30T14:47:33;4.40;;;3.30;;